| time (UTC) | temp F | wind direction | speed MPH | gust MPH | rain 1hr in | rain 24hr in | rain mn in | humidity % | barometer mb |
| 20260906233623 | 74 | 214 | 9.0 | 18.0 | 0.00 | 0.00 | 0.00 | 30 | 1017.3 |
| 20260906232617 | 74 | 254 | 11.0 | 19.0 | 0.00 | 0.00 | 0.00 | 29 | 1017.5 |
| 20260906231626 | 75 | 215 | 9.0 | 19.0 | 0.00 | 0.00 | 0.00 | 30 | 1017.5 |
| 20260906230615 | 75 | 212 | 13.0 | 21.0 | 0.00 | 0.00 | 0.00 | 28 | 1017.5 |
| 20260906225613 | 76 | 207 | 8.0 | 19.0 | 0.00 | 0.00 | 0.00 | 28 | 1017.5 |
| 20260906224626 | 75 | 221 | 12.0 | 19.0 | 0.00 | 0.00 | 0.00 | 28 | 1017.6 |
| 20260906223614 | 76 | 213 | 10.0 | 19.0 | 0.00 | 0.00 | 0.00 | 28 | 1017.7 |
| 20260906222623 | 76 | 221 | 8.0 | 22.0 | 0.00 | 0.00 | 0.00 | 26 | 1017.6 |
| 20260906221633 | 77 | 225 | 10.0 | 24.0 | 0.00 | 0.00 | 0.00 | 27 | 1017.6 |
| 20260906220645 | 77 | 212 | 14.0 | 23.0 | 0.00 | 0.00 | 0.00 | 25 | 1017.6 |
| 20260906215626 | 77 | 249 | 11.0 | 16.0 | 0.00 | 0.00 | 0.00 | 26 | 1017.5 |
| 20260906214615 | 77 | 222 | 10.0 | 26.0 | 0.00 | 0.00 | 0.00 | 25 | 1017.7 |
| 20260906213624 | 77 | 205 | 10.0 | 18.0 | 0.00 | 0.00 | 0.00 | 24 | 1017.6 |
| 20260906212617 | 77 | 254 | 11.0 | 22.0 | 0.00 | 0.00 | 0.00 | 24 | 1017.8 |
| 20260906211627 | 78 | 217 | 11.0 | 22.0 | 0.00 | 0.00 | 0.00 | 23 | 1017.8 |
| 20260906210616 | 78 | 209 | 9.0 | 24.0 | 0.00 | 0.00 | 0.00 | 24 | 1017.9 |
| 20260906205617 | 78 | 231 | 11.0 | 20.0 | 0.00 | 0.00 | 0.00 | 23 | 1018.1 |
| 20260906204631 | 77 | 257 | 12.0 | 23.0 | 0.00 | 0.00 | 0.00 | 23 | 1018.2 |
| 20260906203620 | 77 | 219 | 15.0 | 22.0 | 0.00 | 0.00 | 0.00 | 23 | 1018.2 |
| 20260906202628 | 77 | 215 | 13.0 | 25.0 | 0.00 | 0.00 | 0.00 | 23 | 1018.2 |
| 20260906201617 | 77 | 215 | 8.0 | 18.0 | 0.00 | 0.00 | 0.00 | 22 | 1018.2 |
| 20260906200631 | 77 | 205 | 13.0 | 20.0 | 0.00 | 0.00 | 0.00 | 22 | 1018.4 |
| 20260906195613 | 77 | 200 | 7.0 | 17.0 | 0.00 | 0.00 | 0.00 | 23 | 1018.6 |
| 20260906194625 | 77 | 176 | 12.0 | 21.0 | 0.00 | 0.00 | 0.00 | 22 | 1018.6 |
| 20260906193615 | 77 | 196 | 11.0 | 16.0 | 0.00 | 0.00 | 0.00 | 22 | 1018.5 |
| 20260906192649 | 78 | 222 | 10.0 | 21.0 | 0.00 | 0.00 | 0.00 | 23 | 1018.8 |
| 20260906191615 | 77 | 177 | 9.0 | 22.0 | 0.00 | 0.00 | 0.00 | 21 | 1018.9 |
| 20260906190623 | 77 | 157 | 14.0 | 22.0 | 0.00 | 0.00 | 0.00 | 22 | 1018.7 |
| 20260906185625 | 77 | 182 | 10.0 | 21.0 | 0.00 | 0.00 | 0.00 | 21 | 1019.0 |
| 20260906184619 | 77 | 175 | 13.0 | 18.0 | 0.00 | 0.00 | 0.00 | 22 | 1019.0 |
| 20260906183629 | 75 | 223 | 9.0 | 19.0 | 0.00 | 0.00 | 0.00 | 24 | 1019.4 |
| 20260906182618 | 75 | 234 | 9.0 | 26.0 | 0.00 | 0.00 | 0.00 | 24 | 1019.4 |
| 20260906181649 | 76 | 182 | 15.0 | 23.0 | 0.00 | 0.00 | 0.00 | 23 | 1019.6 |
| 20260906180624 | 75 | 158 | 16.0 | 23.0 | 0.00 | 0.00 | 0.00 | 24 | 1019.7 |
| 20260906175629 | 75 | 204 | 17.0 | 22.0 | 0.00 | 0.00 | 0.00 | 24 | 1019.9 |
| 20260906174618 | 75 | 175 | 11.0 | 19.0 | 0.00 | 0.00 | 0.00 | 25 | 1020.0 |
| 20260906173626 | 74 | 196 | 10.0 | 19.0 | 0.00 | 0.00 | 0.00 | 22 | 1020.3 |
| 20260906172615 | 74 | 190 | 11.0 | 21.0 | 0.00 | 0.00 | 0.00 | 24 | 1020.2 |
| 20260906171628 | 73 | 162 | 10.0 | 21.0 | 0.00 | 0.00 | 0.00 | 26 | 1020.4 |
| 20260906170618 | 72 | 152 | 14.0 | 21.0 | 0.00 | 0.00 | 0.00 | 30 | 1020.5 |
| 20260906165619 | 72 | 188 | 14.0 | 21.0 | 0.00 | 0.00 | 0.00 | 31 | 1020.6 |
| 20260906164629 | 71 | 162 | 14.0 | 20.0 | 0.00 | 0.00 | 0.00 | 32 | 1020.6 |
| 20260906163622 | 68 | 91 | 3.0 | 9.0 | 0.00 | 0.00 | 0.00 | 40 | 1020.8 |
| 20260906162612 | 65 | 101 | 4.0 | 12.0 | 0.00 | 0.00 | 0.00 | 42 | 1021.0 |
| 20260906161623 | 63 | 28 | 4.0 | 7.0 | 0.00 | 0.00 | 0.00 | 45 | 1021.2 |
| 20260906160616 | 62 | 50 | 3.0 | 5.0 | 0.00 | 0.00 | 0.00 | 47 | 1021.3 |
| 20260906155618 | 61 | 86 | 2.0 | 4.0 | 0.00 | 0.00 | 0.00 | 48 | 1021.3 |
| 20260906154649 | 58 | 85 | 2.0 | 4.0 | 0.00 | 0.00 | 0.00 | 50 | 1021.4 |
| 20260906153617 | 57 | 84 | 2.0 | 3.0 | 0.00 | 0.00 | 0.00 | 50 | 1021.5 |
| 20260906152627 | 55 | 84 | 1.0 | 3.0 | 0.00 | 0.00 | 0.00 | 52 | 1021.6 |
| 20260906151619 | 54 | 84 | 2.0 | 3.0 | 0.00 | 0.00 | 0.00 | 54 | 1021.6 |
| 20260906150649 | 52 | 84 | 2.0 | 3.0 | 0.00 | 0.00 | 0.00 | 56 | 1021.7 |
| 20260906145629 | 50 | 84 | 2.0 | 4.0 | 0.00 | 0.00 | 0.00 | 58 | 1021.8 |
| 20260906144619 | 49 | 84 | 3.0 | 4.0 | 0.00 | 0.00 | 0.00 | 61 | 1021.8 |
| 20260906143612 | 48 | 84 | 3.0 | 4.0 | 0.00 | 0.00 | 0.00 | 64 | 1021.9 |
| 20260906142620 | 46 | 84 | 3.0 | 4.0 | 0.00 | 0.00 | 0.00 | 67 | 1021.9 |
| 20260906141630 | 45 | 84 | 2.0 | 6.0 | 0.00 | 0.00 | 0.00 | 69 | 1021.9 |
| 20260906140621 | 43 | 84 | 3.0 | 4.0 | 0.00 | 0.00 | 0.00 | 72 | 1021.8 |
| 20260906135628 | 41 | 88 | 2.0 | 3.0 | 0.00 | 0.00 | 0.00 | 75 | 1021.8 |
| 20260906134620 | 39 | 87 | 0.0 | 2.0 | 0.00 | 0.00 | 0.00 | 77 | 1021.6 |
| 20260906133631 | 37 | 88 | 2.0 | 4.0 | 0.00 | 0.00 | 0.00 | 77 | 1021.5 |
| 20260906132627 | 36 | 86 | 0.0 | 1.0 | 0.00 | 0.00 | 0.00 | 79 | 1021.4 |
| 20260906131618 | 36 | 86 | 1.0 | 2.0 | 0.00 | 0.00 | 0.00 | 76 | 1021.3 |
| 20260906130629 | 37 | 86 | 2.0 | 4.0 | 0.00 | 0.00 | 0.00 | 74 | 1021.4 |
| 20260906125613 | 38 | 261 | 2.0 | 4.0 | 0.00 | 0.00 | 0.00 | 74 | 1021.2 |
| 20260906124628 | 38 | 261 | 2.0 | 6.0 | 0.00 | 0.00 | 0.00 | 72 | 1021.2 |
| 20260906123619 | 40 | 224 | 3.0 | 4.0 | 0.00 | 0.00 | 0.00 | 68 | 1021.2 |
| 20260906122630 | 42 | 224 | 1.0 | 4.0 | 0.00 | 0.00 | 0.00 | 66 | 1021.2 |
| 20260906121622 | 39 | 224 | 3.0 | 5.0 | 0.00 | 0.00 | 0.00 | 71 | 1021.2 |
| 20260906120638 | 39 | 239 | 2.0 | 4.0 | 0.00 | 0.00 | 0.00 | 72 | 1021.2 |
| 20260906115621 | 38 | 239 | 3.0 | 4.0 | 0.00 | 0.00 | 0.00 | 74 | 1021.3 |
| 20260906114650 | 37 | 239 | 3.0 | 4.0 | 0.00 | 0.00 | 0.00 | 75 | 1021.3 |
| 20260906113638 | 38 | 239 | 3.0 | 4.0 | 0.00 | 0.00 | 0.00 | 73 | 1021.3 |
| 20260906112647 | 39 | 239 | 2.0 | 4.0 | 0.00 | 0.00 | 0.00 | 70 | 1021.3 |
| 20260906111619 | 40 | 239 | 2.0 | 4.0 | 0.00 | 0.00 | 0.00 | 69 | 1021.3 |
| 20260906110630 | 40 | 239 | 2.0 | 4.0 | 0.00 | 0.00 | 0.00 | 71 | 1021.3 |
| 20260906105614 | 40 | 239 | 2.0 | 3.0 | 0.00 | 0.00 | 0.00 | 71 | 1021.4 |
| 20260906104645 | 40 | 239 | 1.0 | 3.0 | 0.00 | 0.00 | 0.00 | 72 | 1021.3 |
| 20260906103619 | 40 | 239 | 2.0 | 4.0 | 0.00 | 0.00 | 0.00 | 70 | 1021.3 |
| 20260906102631 | 41 | 239 | 2.0 | 4.0 | 0.00 | 0.00 | 0.00 | 67 | 1021.2 |
| 20260906101622 | 42 | 239 | 2.0 | 3.0 | 0.00 | 0.00 | 0.00 | 65 | 1021.1 |
| 20260906100618 | 44 | 239 | 2.0 | 3.0 | 0.00 | 0.00 | 0.00 | 59 | 1021.1 |
| 20260906095621 | 44 | 239 | 2.0 | 3.0 | 0.00 | 0.00 | 0.00 | 59 | 1021.1 |
| 20260906094612 | 43 | 239 | 2.0 | 5.0 | 0.00 | 0.00 | 0.00 | 63 | 1020.9 |
| 20260906093623 | 42 | 225 | 3.0 | 5.0 | 0.00 | 0.00 | 0.00 | 65 | 1020.8 |
| 20260906092617 | 42 | 222 | 3.0 | 5.0 | 0.00 | 0.00 | 0.00 | 67 | 1020.8 |
| 20260906091629 | 42 | 207 | 3.0 | 4.0 | 0.00 | 0.00 | 0.00 | 65 | 1020.7 |
| 20260906090620 | 43 | 207 | 3.0 | 4.0 | 0.00 | 0.00 | 0.00 | 64 | 1020.7 |
| 20260906085623 | 43 | 85 | 2.0 | 3.0 | 0.00 | 0.00 | 0.00 | 64 | 1020.7 |
| 20260906084619 | 43 | 85 | 0.0 | 0.0 | 0.00 | 0.00 | 0.00 | 64 | 1020.8 |
| 20260906083630 | 44 | 85 | 0.0 | 3.0 | 0.00 | 0.00 | 0.00 | 65 | 1020.8 |
| 20260906082622 | 44 | 85 | 0.0 | 4.0 | 0.00 | 0.00 | 0.00 | 64 | 1020.8 |
| 20260906081613 | 44 | 85 | 1.0 | 2.0 | 0.00 | 0.00 | 0.00 | 63 | 1020.7 |
| 20260906080629 | 44 | 85 | 2.0 | 3.0 | 0.00 | 0.00 | 0.00 | 63 | 1020.9 |
| 20260906075612 | 45 | 85 | 4.0 | 6.0 | 0.00 | 0.00 | 0.00 | 63 | 1020.8 |
| 20260906074621 | 45 | 217 | 2.0 | 3.0 | 0.00 | 0.00 | 0.00 | 62 | 1020.7 |
| 20260906073615 | 46 | 217 | 0.0 | 3.0 | 0.00 | 0.00 | 0.00 | 59 | 1020.7 |
| 20260906072624 | 45 | 217 | 1.0 | 4.0 | 0.00 | 0.00 | 0.00 | 59 | 1020.9 |
| 20260906071634 | 45 | 217 | 3.0 | 4.0 | 0.00 | 0.00 | 0.00 | 61 | 1020.9 |
| 20260906070622 | 46 | 217 | 1.0 | 3.0 | 0.00 | 0.00 | 0.00 | 60 | 1020.8 |
| 20260906065646 | 48 | 217 | 2.0 | 5.0 | 0.00 | 0.00 | 0.00 | 55 | 1020.7 |
| 20260906064640 | 49 | 217 | 3.0 | 4.0 | 0.00 | 0.00 | 0.00 | 52 | 1020.6 |
| 20260906063630 | 50 | 217 | 2.0 | 4.0 | 0.00 | 0.00 | 0.00 | 50 | 1020.7 |
| 20260906062622 | 51 | 217 | 2.0 | 5.0 | 0.00 | 0.00 | 0.00 | 47 | 1020.7 |
| 20260906061612 | 50 | 231 | 3.0 | 5.0 | 0.00 | 0.00 | 0.00 | 48 | 1020.7 |
| 20260906060618 | 50 | 254 | 3.0 | 7.0 | 0.00 | 0.00 | 0.00 | 50 | 1020.6 |
| 20260906055641 | 49 | 254 | 3.0 | 5.0 | 0.00 | 0.00 | 0.00 | 52 | 1020.5 |
| 20260906054637 | 49 | 254 | 4.0 | 5.0 | 0.00 | 0.00 | 0.00 | 52 | 1020.5 |
| 20260906053627 | 51 | 216 | 2.0 | 4.0 | 0.00 | 0.00 | 0.00 | 49 | 1020.6 |
| 20260906052619 | 53 | 215 | 2.0 | 4.0 | 0.00 | 0.00 | 0.00 | 44 | 1020.6 |
| 20260906051629 | 52 | 226 | 3.0 | 7.0 | 0.00 | 0.00 | 0.00 | 45 | 1020.7 |
| 20260906050624 | 51 | 256 | 4.0 | 6.0 | 0.00 | 0.00 | 0.00 | 48 | 1020.6 |
| 20260906045628 | 55 | 221 | 5.0 | 6.0 | 0.00 | 0.00 | 0.00 | 41 | 1020.7 |
| 20260906044619 | 56 | 226 | 3.0 | 5.0 | 0.00 | 0.00 | 0.00 | 37 | 1020.8 |
| 20260906043630 | 55 | 195 | 4.0 | 8.0 | 0.00 | 0.00 | 0.00 | 38 | 1020.8 |
| 20260906042625 | 53 | 233 | 6.0 | 9.0 | 0.00 | 0.00 | 0.00 | 41 | 1020.6 |
| 20260906041617 | 51 | 267 | 4.0 | 7.0 | 0.00 | 0.00 | 0.00 | 49 | 1020.6 |
| 20260906040628 | 52 | 251 | 5.0 | 7.0 | 0.00 | 0.00 | 0.00 | 48 | 1020.3 |
| 20260906035631 | 55 | 257 | 4.0 | 7.0 | 0.00 | 0.00 | 0.00 | 44 | 1020.3 |
| 20260906034627 | 56 | 248 | 4.0 | 7.0 | 0.00 | 0.00 | 0.00 | 41 | 1020.2 |
| 20260906033638 | 55 | 248 | 3.0 | 4.0 | 0.00 | 0.00 | 0.00 | 44 | 1020.2 |
| 20260906032628 | 55 | 248 | 3.0 | 5.0 | 0.00 | 0.00 | 0.00 | 44 | 1020.1 |
| 20260906031639 | 57 | 265 | 3.0 | 6.0 | 0.00 | 0.00 | 0.00 | 39 | 1019.9 |
| 20260906030613 | 57 | 265 | 3.0 | 4.0 | 0.00 | 0.00 | 0.00 | 40 | 1019.8 |
| 20260906025616 | 59 | 265 | 3.0 | 4.0 | 0.00 | 0.00 | 0.00 | 40 | 1019.7 |
| 20260906024647 | 60 | 265 | 1.0 | 3.0 | 0.00 | 0.00 | 0.00 | 34 | 1019.6 |
| 20260906023618 | 61 | 265 | 2.0 | 3.0 | 0.00 | 0.00 | 0.00 | 36 | 1019.4 |
| 20260906022614 | 61 | 265 | 2.0 | 3.0 | 0.00 | 0.00 | 0.00 | 33 | 1019.3 |
| 20260906021625 | 63 | 265 | 2.0 | 6.0 | 0.00 | 0.00 | 0.00 | 32 | 1019.2 |
| 20260906020617 | 67 | 226 | 2.0 | 5.0 | 0.00 | 0.00 | 0.00 | 28 | 1019.1 |
| 20260906015620 | 70 | 211 | 5.0 | 6.0 | 0.00 | 0.00 | 0.00 | 22 | 1019.0 |
| 20260906014635 | 72 | 236 | 4.0 | 7.0 | 0.00 | 0.00 | 0.00 | 21 | 1019.1 |
| 20260906013626 | 74 | 238 | 4.0 | 8.0 | 0.00 | 0.00 | 0.00 | 20 | 1019.1 |
| 20260906012616 | 76 | 220 | 7.0 | 11.0 | 0.00 | 0.00 | 0.00 | 17 | 1019.3 |
| 20260906011645 | 76 | 237 | 7.0 | 15.0 | 0.00 | 0.00 | 0.00 | 17 | 1019.3 |
| 20260906010618 | 77 | 223 | 7.0 | 15.0 | 0.00 | 0.00 | 0.00 | 17 | 1019.2 |
| 20260906005619 | 77 | 230 | 10.0 | 18.0 | 0.00 | 0.00 | 0.00 | 16 | 1019.2 |
| 20260906004627 | 78 | 247 | 12.0 | 17.0 | 0.00 | 0.00 | 0.00 | 15 | 1019.2 |
| 20260906003617 | 78 | 204 | 10.0 | 16.0 | 0.00 | 0.00 | 0.00 | 16 | 1019.2 |
| 20260906002630 | 78 | 219 | 11.0 | 17.0 | 0.00 | 0.00 | 0.00 | 15 | 1019.2 |
| 20260906001620 | 78 | 221 | 9.0 | 16.0 | 0.00 | 0.00 | 0.00 | 15 | 1019.2 |
| 20260906000629 | 78 | 195 | 12.0 | 24.0 | 0.00 | 0.00 | 0.00 | 15 | 1019.1 |
| 20260905235630 | 79 | 237 | 11.0 | 20.0 | 0.00 | 0.00 | 0.00 | 15 | 1019.0 |
| 20260905234624 | 79 | 215 | 13.0 | 22.0 | 0.00 | 0.00 | 0.00 | 13 | 1019.0 |